Vitsentzos Kornaros — SXNX — position and weather

sailwx.info

Track history (hours):
 
Tides and Currents Weather Stations Pressure Air Temp Water Temp Dewpoint Dewpoint Depression Visibility Wind Speed Wind Dir Waves Ship Positions

Vitsentzos Kornaros

Last reported at 2015-Jan-26 18:33 UTC. Time now 2015-Jan-26 18:36 UTC.
Position N 37°42' E 023°44'.

Length 128 m; draft 4.5 m.

Type: Passenger vessel. MMSI: 239311000.

Date/timePositionNaut miles runAvg speedWind from/ knotsBaromVisibWave heightAir tempDewpointWater temp
2015-Jan-26 18:33N 37°42' E 023°44'9212.9
2015-Jan-26 11:28N 36°32' E 024°59'1516.3
2015-Jan-26 10:33N 36°25' E 025°15'9 8.4
2015-Jan-26 09:30N 36°23' E 025°26'4 4.7
2015-Jan-26 08:33N 36°21' E 025°21'1515.5
2015-Jan-26 07:34N 36°20' E 025°40'4 3.8
2015-Jan-26 06:33N 36°19' E 025°44'1615.5
2015-Jan-26 05:33N 36°05' E 025°36'16 0.4
2015-Jan-24 10:11N 35°50' E 025°26'914.2
2015-Jan-24 09:33N 35°58' E 025°31'1514.6
2015-Jan-24 08:33N 36°11' E 025°40'1110.6
2015-Jan-24 07:32N 36°21' E 025°46'1313.1
2015-Jan-24 06:33N 36°19' E 025°30'6 5.4
2015-Jan-24 05:32N 36°23' E 025°26'0 0.1
2015-Jan-24 04:32N 36°23' E 025°26'5 5.3
2015-Jan-24 03:32N 36°23' E 025°19'1414.4
2015-Jan-24 02:33N 36°30' E 025°04'8710.8
2015-Jan-23 18:32N 37°32' E 023°48'1414.7
2015-Jan-23 17:33N 37°45' E 023°39'1212.2
2015-Jan-23 16:33N 37°57' E 023°38'0 0.1
2015-Jan-23 15:33N 37°57' E 023°38'0 0.0
2015-Jan-23 14:33N 37°57' E 023°38'0 0.0
2015-Jan-23 13:33N 37°57' E 023°38'0 0.0
2015-Jan-23 12:33N 37°57' E 023°38'0 0.0
2015-Jan-23 11:33N 37°57' E 023°38'0 0.0
2015-Jan-23 10:33N 37°57' E 023°38'0 0.0
2015-Jan-23 09:34N 37°57' E 023°38'0 0.0
2015-Jan-23 08:34N 37°57' E 023°38'0 0.0
2015-Jan-23 07:33N 37°57' E 023°38'0 0.0
2015-Jan-23 06:33N 37°57' E 023°38'0 0.0
2015-Jan-23 05:33N 37°57' E 023°38'0 0.0
2015-Jan-23 04:33N 37°57' E 023°38'7 6.9
2015-Jan-23 03:33N 37°50' E 023°40'1514.2
2015-Jan-23 02:30N 37°35' E 023°43'  
2015-Jan-19 18:29N 37°18' E 023°35'1212.9
2015-Jan-19 17:33N 37°29' E 023°39'1212.5
2015-Jan-19 16:33N 37°42' E 023°41'1312.6
2015-Jan-19 15:33N 37°54' E 023°37'3 3.3
2015-Jan-19 14:34N 37°57' E 023°38'0 0.0
2015-Jan-19 13:33N 37°57' E 023°38'0 0.0
2015-Jan-19 12:33N 37°57' E 023°38'0 0.0
2015-Jan-19 11:33N 37°57' E 023°38'0 0.0
2015-Jan-19 10:33N 37°57' E 023°38'0 0.0
2015-Jan-19 09:33N 37°57' E 023°38'0 0.0
2015-Jan-19 08:33N 37°57' E 023°38'0 0.0
2015-Jan-19 07:33N 37°57' E 023°38'0 0.0
2015-Jan-19 06:33N 37°57' E 023°38'0 0.0
2015-Jan-19 05:33N 37°57' E 023°38'0 0.0
2015-Jan-19 04:33N 37°57' E 023°38'3 3.2
2015-Jan-19 03:34N 37°54' E 023°38'1515.1
2015-Jan-19 02:33N 37°40' E 023°45'1515.2
2015-Jan-19 01:33N 37°25' E 023°38'  
2015-Jan-16 17:29N 37°33' E 023°40'1314.3
2015-Jan-16 16:33N 37°46' E 023°38'1111.1
2015-Jan-16 15:33N 37°57' E 023°38'0 0.0
2015-Jan-16 14:33N 37°57' E 023°38'0 0.0
2015-Jan-16 13:33N 37°57' E 023°38'0 0.0
2015-Jan-16 12:33N 37°57' E 023°38'0 0.0
2015-Jan-16 11:33N 37°57' E 023°38'  
Track history (hours):
 
Tides and Currents Weather Stations Pressure Air Temp Water Temp Dewpoint Dewpoint Depression Visibility Wind Speed Wind Dir Waves Ship Positions

Vitsentzos Kornaros

Last reported at 2015-Jan-26 18:33 UTC. Time now 2015-Jan-26 18:36 UTC.
Position N 37°42' E 023°44'.

Length 128 m; draft 4.5 m.

Type: Passenger vessel. MMSI: 239311000.

Date/timePositionNaut miles runAvg speedWind from/ knotsBaromVisibWave heightAir tempDewpointWater temp
2015-Jan-26 18:33N 37°42' E 023°44'9212.9
2015-Jan-26 11:28N 36°32' E 024°59'1516.3
2015-Jan-26 10:33N 36°25' E 025°15'9 8.4
2015-Jan-26 09:30N 36°23' E 025°26'4 4.7
2015-Jan-26 08:33N 36°21' E 025°21'1515.5
2015-Jan-26 07:34N 36°20' E 025°40'4 3.8
2015-Jan-26 06:33N 36°19' E 025°44'1615.5
2015-Jan-26 05:33N 36°05' E 025°36'16 0.4
2015-Jan-24 10:11N 35°50' E 025°26'914.2
2015-Jan-24 09:33N 35°58' E 025°31'1514.6
2015-Jan-24 08:33N 36°11' E 025°40'1110.6
2015-Jan-24 07:32N 36°21' E 025°46'1313.1
2015-Jan-24 06:33N 36°19' E 025°30'6 5.4
2015-Jan-24 05:32N 36°23' E 025°26'0 0.1
2015-Jan-24 04:32N 36°23' E 025°26'5 5.3
2015-Jan-24 03:32N 36°23' E 025°19'1414.4
2015-Jan-24 02:33N 36°30' E 025°04'8710.8
2015-Jan-23 18:32N 37°32' E 023°48'1414.7
2015-Jan-23 17:33N 37°45' E 023°39'1212.2
2015-Jan-23 16:33N 37°57' E 023°38'0 0.1
2015-Jan-23 15:33N 37°57' E 023°38'0 0.0
2015-Jan-23 14:33N 37°57' E 023°38'0 0.0
2015-Jan-23 13:33N 37°57' E 023°38'0 0.0
2015-Jan-23 12:33N 37°57' E 023°38'0 0.0
2015-Jan-23 11:33N 37°57' E 023°38'0 0.0
2015-Jan-23 10:33N 37°57' E 023°38'0 0.0
2015-Jan-23 09:34N 37°57' E 023°38'0 0.0
2015-Jan-23 08:34N 37°57' E 023°38'0 0.0
2015-Jan-23 07:33N 37°57' E 023°38'0 0.0
2015-Jan-23 06:33N 37°57' E 023°38'0 0.0
2015-Jan-23 05:33N 37°57' E 023°38'0 0.0
2015-Jan-23 04:33N 37°57' E 023°38'7 6.9
2015-Jan-23 03:33N 37°50' E 023°40'1514.2
2015-Jan-23 02:30N 37°35' E 023°43'  
2015-Jan-19 18:29N 37°18' E 023°35'1212.9
2015-Jan-19 17:33N 37°29' E 023°39'1212.5
2015-Jan-19 16:33N 37°42' E 023°41'1312.6
2015-Jan-19 15:33N 37°54' E 023°37'3 3.3
2015-Jan-19 14:34N 37°57' E 023°38'0 0.0
2015-Jan-19 13:33N 37°57' E 023°38'0 0.0
2015-Jan-19 12:33N 37°57' E 023°38'0 0.0
2015-Jan-19 11:33N 37°57' E 023°38'0 0.0
2015-Jan-19 10:33N 37°57' E 023°38'0 0.0
2015-Jan-19 09:33N 37°57' E 023°38'0 0.0
2015-Jan-19 08:33N 37°57' E 023°38'0 0.0
2015-Jan-19 07:33N 37°57' E 023°38'0 0.0
2015-Jan-19 06:33N 37°57' E 023°38'0 0.0
2015-Jan-19 05:33N 37°57' E 023°38'0 0.0
2015-Jan-19 04:33N 37°57' E 023°38'3 3.2
2015-Jan-19 03:34N 37°54' E 023°38'1515.1
2015-Jan-19 02:33N 37°40' E 023°45'1515.2
2015-Jan-19 01:33N 37°25' E 023°38'  
2015-Jan-16 17:29N 37°33' E 023°40'1314.3
2015-Jan-16 16:33N 37°46' E 023°38'1111.1
2015-Jan-16 15:33N 37°57' E 023°38'0 0.0
2015-Jan-16 14:33N 37°57' E 023°38'0 0.0
2015-Jan-16 13:33N 37°57' E 023°38'0 0.0
2015-Jan-16 12:33N 37°57' E 023°38'0 0.0
2015-Jan-16 11:33N 37°57' E 023°38'  

Dump ship's entire track history